sensor_id;sensor_type;location;lat;lon;timestamp;temperature;humidity
70068;DHT22;57425;51.616;6.680;2023-07-30T00:01:50;21.50;70.70
70068;DHT22;57425;51.616;6.680;2023-07-30T00:04:16;21.50;71.00
70068;DHT22;57425;51.616;6.680;2023-07-30T00:06:41;21.50;70.60
70068;DHT22;57425;51.616;6.680;2023-07-30T00:09:07;21.40;70.50
70068;DHT22;57425;51.616;6.680;2023-07-30T00:11:32;21.40;70.30
70068;DHT22;57425;51.616;6.680;2023-07-30T00:13:58;21.40;70.20
70068;DHT22;57425;51.616;6.680;2023-07-30T00:16:26;21.40;70.20
70068;DHT22;57425;51.616;6.680;2023-07-30T00:18:51;21.40;70.10
70068;DHT22;57425;51.616;6.680;2023-07-30T00:21:17;21.40;70.10
70068;DHT22;57425;51.616;6.680;2023-07-30T00:23:42;21.30;69.90
70068;DHT22;57425;51.616;6.680;2023-07-30T00:26:08;21.40;69.90
70068;DHT22;57425;51.616;6.680;2023-07-30T00:28:33;21.30;69.80
70068;DHT22;57425;51.616;6.680;2023-07-30T00:30:59;21.20;69.70
70068;DHT22;57425;51.616;6.680;2023-07-30T00:33:25;21.30;69.70
70068;DHT22;57425;51.616;6.680;2023-07-30T00:35:51;21.20;69.60
70068;DHT22;57425;51.616;6.680;2023-07-30T00:38:18;21.20;69.60
70068;DHT22;57425;51.616;6.680;2023-07-30T00:40:44;21.20;69.60
70068;DHT22;57425;51.616;6.680;2023-07-30T00:43:09;21.20;69.50
70068;DHT22;57425;51.616;6.680;2023-07-30T00:45:36;21.10;69.40
70068;DHT22;57425;51.616;6.680;2023-07-30T00:48:03;21.20;70.00
70068;DHT22;57425;51.616;6.680;2023-07-30T00:50:29;21.20;69.40
70068;DHT22;57425;51.616;6.680;2023-07-30T00:52:56;21.10;69.30
70068;DHT22;57425;51.616;6.680;2023-07-30T00:55:21;21.10;69.20
70068;DHT22;57425;51.616;6.680;2023-07-30T00:57:48;21.10;69.20
70068;DHT22;57425;51.616;6.680;2023-07-30T01:00:13;21.10;69.20
70068;DHT22;57425;51.616;6.680;2023-07-30T01:02:39;21.10;69.30
70068;DHT22;57425;51.616;6.680;2023-07-30T01:05:05;21.10;69.20
70068;DHT22;57425;51.616;6.680;2023-07-30T01:07:31;21.00;69.10
70068;DHT22;57425;51.616;6.680;2023-07-30T01:09:57;21.00;69.10
70068;DHT22;57425;51.616;6.680;2023-07-30T01:12:23;21.00;69.20
70068;DHT22;57425;51.616;6.680;2023-07-30T01:14:49;21.00;69.10
70068;DHT22;57425;51.616;6.680;2023-07-30T01:17:16;21.00;69.00
70068;DHT22;57425;51.616;6.680;2023-07-30T01:19:41;21.00;69.00
70068;DHT22;57425;51.616;6.680;2023-07-30T01:22:07;21.00;68.90
70068;DHT22;57425;51.616;6.680;2023-07-30T01:24:33;20.90;68.90
70068;DHT22;57425;51.616;6.680;2023-07-30T01:27:05;20.90;68.90
70068;DHT22;57425;51.616;6.680;2023-07-30T01:29:42;20.90;68.70
70068;DHT22;57425;51.616;6.680;2023-07-30T01:32:11;20.90;68.70
70068;DHT22;57425;51.616;6.680;2023-07-30T01:34:37;20.90;68.70
70068;DHT22;57425;51.616;6.680;2023-07-30T01:37:10;20.90;68.70
70068;DHT22;57425;51.616;6.680;2023-07-30T01:39:37;20.90;68.60
70068;DHT22;57425;51.616;6.680;2023-07-30T01:42:04;20.80;68.70
70068;DHT22;57425;51.616;6.680;2023-07-30T01:44:30;20.80;68.60
70068;DHT22;57425;51.616;6.680;2023-07-30T01:46:56;20.80;68.60
70068;DHT22;57425;51.616;6.680;2023-07-30T01:49:21;20.80;68.50
70068;DHT22;57425;51.616;6.680;2023-07-30T01:51:47;20.80;68.50
70068;DHT22;57425;51.616;6.680;2023-07-30T01:54:13;20.80;68.40
70068;DHT22;57425;51.616;6.680;2023-07-30T01:56:39;20.70;68.40
70068;DHT22;57425;51.616;6.680;2023-07-30T01:59:04;20.70;68.40
70068;DHT22;57425;51.616;6.680;2023-07-30T02:01:30;20.70;68.40
70068;DHT22;57425;51.616;6.680;2023-07-30T02:03:56;20.70;68.40
70068;DHT22;57425;51.616;6.680;2023-07-30T02:06:21;20.70;68.30
70068;DHT22;57425;51.616;6.680;2023-07-30T02:08:47;20.60;68.20
70068;DHT22;57425;51.616;6.680;2023-07-30T02:11:13;20.60;68.10
70068;DHT22;57425;51.616;6.680;2023-07-30T02:13:38;20.60;68.10
70068;DHT22;57425;51.616;6.680;2023-07-30T02:16:04;20.60;68.10
70068;DHT22;57425;51.616;6.680;2023-07-30T02:18:30;20.50;68.00
70068;DHT22;57425;51.616;6.680;2023-07-30T02:20:55;20.50;68.00
70068;DHT22;57425;51.616;6.680;2023-07-30T02:23:21;20.50;68.00
70068;DHT22;57425;51.616;6.680;2023-07-30T02:25:46;20.50;68.10
70068;DHT22;57425;51.616;6.680;2023-07-30T02:28:12;20.40;68.00
70068;DHT22;57425;51.616;6.680;2023-07-30T02:30:38;20.50;68.70
70068;DHT22;57425;51.616;6.680;2023-07-30T02:33:03;20.40;68.10
70068;DHT22;57425;51.616;6.680;2023-07-30T02:35:29;20.40;68.10
70068;DHT22;57425;51.616;6.680;2023-07-30T02:37:54;20.40;68.10
70068;DHT22;57425;51.616;6.680;2023-07-30T02:40:20;20.40;68.20
70068;DHT22;57425;51.616;6.680;2023-07-30T02:42:46;20.40;68.70
70068;DHT22;57425;51.616;6.680;2023-07-30T02:45:11;20.40;68.10
70068;DHT22;57425;51.616;6.680;2023-07-30T02:47:37;20.40;68.20
70068;DHT22;57425;51.616;6.680;2023-07-30T02:50:04;20.30;68.10
70068;DHT22;57425;51.616;6.680;2023-07-30T02:52:30;20.30;68.00
70068;DHT22;57425;51.616;6.680;2023-07-30T02:57:21;20.30;67.50
70068;DHT22;57425;51.616;6.680;2023-07-30T02:59:47;20.30;68.00
70068;DHT22;57425;51.616;6.680;2023-07-30T03:02:13;20.20;67.90
70068;DHT22;57425;51.616;6.680;2023-07-30T03:04:38;20.20;67.90
70068;DHT22;57425;51.616;6.680;2023-07-30T03:07:04;20.20;67.90
70068;DHT22;57425;51.616;6.680;2023-07-30T03:09:30;20.20;67.90
70068;DHT22;57425;51.616;6.680;2023-07-30T03:11:55;20.20;67.90
70068;DHT22;57425;51.616;6.680;2023-07-30T03:14:21;20.20;67.90
70068;DHT22;57425;51.616;6.680;2023-07-30T03:16:48;20.10;68.00
70068;DHT22;57425;51.616;6.680;2023-07-30T03:21:40;20.10;83.20
70068;DHT22;57425;51.616;6.680;2023-07-30T03:24:05;20.10;68.60
70068;DHT22;57425;51.616;6.680;2023-07-30T03:26:31;20.10;88.70
70068;DHT22;57425;51.616;6.680;2023-07-30T03:31:23;19.70;67.60
70068;DHT22;57425;51.616;6.680;2023-07-30T03:33:48;20.10;68.30
70068;DHT22;57425;51.616;6.680;2023-07-30T03:36:14;20.10;68.40
70068;DHT22;57425;51.616;6.680;2023-07-30T03:38:43;20.10;68.40
70068;DHT22;57425;51.616;6.680;2023-07-30T03:41:10;20.10;68.40
70068;DHT22;57425;51.616;6.680;2023-07-30T03:43:36;20.10;68.40
70068;DHT22;57425;51.616;6.680;2023-07-30T03:46:02;20.10;68.50
70068;DHT22;57425;51.616;6.680;2023-07-30T03:48:28;20.10;69.10
70068;DHT22;57425;51.616;6.680;2023-07-30T03:50:54;20.00;68.50
70068;DHT22;57425;51.616;6.680;2023-07-30T03:53:20;20.10;68.40
70068;DHT22;57425;51.616;6.680;2023-07-30T03:55:45;20.00;68.40
70068;DHT22;57425;51.616;6.680;2023-07-30T03:58:11;20.00;68.40
70068;DHT22;57425;51.616;6.680;2023-07-30T04:00:37;20.00;69.10
70068;DHT22;57425;51.616;6.680;2023-07-30T04:03:02;20.10;68.60
70068;DHT22;57425;51.616;6.680;2023-07-30T04:05:29;20.00;68.70
70068;DHT22;57425;51.616;6.680;2023-07-30T04:07:55;20.00;68.80
70068;DHT22;57425;51.616;6.680;2023-07-30T04:10:20;20.00;68.90
70068;DHT22;57425;51.616;6.680;2023-07-30T04:12:46;20.00;69.40
70068;DHT22;57425;51.616;6.680;2023-07-30T04:15:11;20.00;68.90
70068;DHT22;57425;51.616;6.680;2023-07-30T04:17:37;20.00;68.90
70068;DHT22;57425;51.616;6.680;2023-07-30T04:20:03;20.00;69.00
70068;DHT22;57425;51.616;6.680;2023-07-30T04:22:30;20.00;68.90
70068;DHT22;57425;51.616;6.680;2023-07-30T04:24:55;20.00;68.90
70068;DHT22;57425;51.616;6.680;2023-07-30T04:27:21;20.00;68.90
70068;DHT22;57425;51.616;6.680;2023-07-30T04:29:46;20.00;68.90
70068;DHT22;57425;51.616;6.680;2023-07-30T04:32:12;20.00;69.00
70068;DHT22;57425;51.616;6.680;2023-07-30T04:34:38;20.00;69.10
70068;DHT22;57425;51.616;6.680;2023-07-30T04:37:04;20.00;69.10
70068;DHT22;57425;51.616;6.680;2023-07-30T04:39:33;20.00;69.20
70068;DHT22;57425;51.616;6.680;2023-07-30T04:41:58;20.00;69.20
70068;DHT22;57425;51.616;6.680;2023-07-30T04:44:24;20.00;69.30
70068;DHT22;57425;51.616;6.680;2023-07-30T04:46:50;19.90;69.30
70068;DHT22;57425;51.616;6.680;2023-07-30T04:49:15;20.00;69.40
70068;DHT22;57425;51.616;6.680;2023-07-30T04:51:41;20.00;69.40
70068;DHT22;57425;51.616;6.680;2023-07-30T04:54:06;20.00;69.50
70068;DHT22;57425;51.616;6.680;2023-07-30T04:56:32;19.90;70.10
70068;DHT22;57425;51.616;6.680;2023-07-30T04:58:58;20.00;69.60
70068;DHT22;57425;51.616;6.680;2023-07-30T05:01:26;19.90;69.60
70068;DHT22;57425;51.616;6.680;2023-07-30T05:03:52;19.90;69.60
70068;DHT22;57425;51.616;6.680;2023-07-30T05:06:18;19.90;69.60
70068;DHT22;57425;51.616;6.680;2023-07-30T05:08:44;19.90;69.80
70068;DHT22;57425;51.616;6.680;2023-07-30T05:11:09;19.90;70.00
70068;DHT22;57425;51.616;6.680;2023-07-30T05:13:35;19.90;70.00
70068;DHT22;57425;51.616;6.680;2023-07-30T05:16:00;19.90;70.00
70068;DHT22;57425;51.616;6.680;2023-07-30T05:18:27;19.90;70.00
70068;DHT22;57425;51.616;6.680;2023-07-30T05:20:52;19.90;70.00
70068;DHT22;57425;51.616;6.680;2023-07-30T05:23:19;19.90;70.00
70068;DHT22;57425;51.616;6.680;2023-07-30T05:25:44;19.90;70.10
70068;DHT22;57425;51.616;6.680;2023-07-30T05:28:10;19.90;70.70
70068;DHT22;57425;51.616;6.680;2023-07-30T05:30:36;19.90;70.10
70068;DHT22;57425;51.616;6.680;2023-07-30T05:33:01;19.90;70.20
70068;DHT22;57425;51.616;6.680;2023-07-30T05:35:27;19.90;70.10
70068;DHT22;57425;51.616;6.680;2023-07-30T05:37:52;19.90;70.20
70068;DHT22;57425;51.616;6.680;2023-07-30T05:40:18;19.90;70.80
70068;DHT22;57425;51.616;6.680;2023-07-30T05:42:43;19.90;70.20
70068;DHT22;57425;51.616;6.680;2023-07-30T05:45:09;19.80;70.20
70068;DHT22;57425;51.616;6.680;2023-07-30T05:47:35;19.90;70.30
70068;DHT22;57425;51.616;6.680;2023-07-30T05:50:02;19.80;70.30
70068;DHT22;57425;51.616;6.680;2023-07-30T05:52:27;19.90;70.30
70068;DHT22;57425;51.616;6.680;2023-07-30T05:54:53;19.80;70.30
70068;DHT22;57425;51.616;6.680;2023-07-30T05:57:18;19.80;70.30
70068;DHT22;57425;51.616;6.680;2023-07-30T05:59:44;19.80;70.30
70068;DHT22;57425;51.616;6.680;2023-07-30T06:02:10;19.80;70.30
70068;DHT22;57425;51.616;6.680;2023-07-30T06:04:35;19.80;70.40
70068;DHT22;57425;51.616;6.680;2023-07-30T06:07:02;19.80;70.40
70068;DHT22;57425;51.616;6.680;2023-07-30T06:09:28;19.80;70.40
70068;DHT22;57425;51.616;6.680;2023-07-30T06:11:56;19.80;70.40
70068;DHT22;57425;51.616;6.680;2023-07-30T06:14:22;19.80;70.50
70068;DHT22;57425;51.616;6.680;2023-07-30T06:16:47;19.80;70.50
70068;DHT22;57425;51.616;6.680;2023-07-30T06:19:13;19.80;70.50
70068;DHT22;57425;51.616;6.680;2023-07-30T06:21:38;19.80;70.50
70068;DHT22;57425;51.616;6.680;2023-07-30T06:24:04;19.80;70.50
70068;DHT22;57425;51.616;6.680;2023-07-30T06:26:30;19.80;70.50
70068;DHT22;57425;51.616;6.680;2023-07-30T06:28:55;19.80;70.50
70068;DHT22;57425;51.616;6.680;2023-07-30T06:31:21;19.80;70.50
70068;DHT22;57425;51.616;6.680;2023-07-30T06:33:46;19.80;70.60
70068;DHT22;57425;51.616;6.680;2023-07-30T06:36:12;19.80;70.50
70068;DHT22;57425;51.616;6.680;2023-07-30T06:38:38;19.70;70.50
70068;DHT22;57425;51.616;6.680;2023-07-30T06:41:03;19.70;70.50
70068;DHT22;57425;51.616;6.680;2023-07-30T06:43:29;19.80;70.60
70068;DHT22;57425;51.616;6.680;2023-07-30T06:45:54;19.70;70.50
70068;DHT22;57425;51.616;6.680;2023-07-30T06:48:20;19.80;70.60
70068;DHT22;57425;51.616;6.680;2023-07-30T06:50:45;19.70;70.50
70068;DHT22;57425;51.616;6.680;2023-07-30T06:53:11;19.70;70.50
70068;DHT22;57425;51.616;6.680;2023-07-30T06:55:37;19.80;70.50
70068;DHT22;57425;51.616;6.680;2023-07-30T06:58:02;19.70;70.50
70068;DHT22;57425;51.616;6.680;2023-07-30T07:00:28;19.70;70.60
70068;DHT22;57425;51.616;6.680;2023-07-30T07:02:53;19.70;71.20
70068;DHT22;57425;51.616;6.680;2023-07-30T07:05:19;19.70;70.60
70068;DHT22;57425;51.616;6.680;2023-07-30T07:07:45;19.70;70.60
70068;DHT22;57425;51.616;6.680;2023-07-30T07:10:11;19.70;70.60
70068;DHT22;57425;51.616;6.680;2023-07-30T07:12:37;19.70;70.60
70068;DHT22;57425;51.616;6.680;2023-07-30T07:15:06;19.70;70.60
70068;DHT22;57425;51.616;6.680;2023-07-30T07:17:32;19.70;70.70
70068;DHT22;57425;51.616;6.680;2023-07-30T07:19:57;19.70;70.70
70068;DHT22;57425;51.616;6.680;2023-07-30T07:22:23;19.70;70.70
70068;DHT22;57425;51.616;6.680;2023-07-30T07:24:50;19.70;70.90
70068;DHT22;57425;51.616;6.680;2023-07-30T07:27:18;19.70;70.80
70068;DHT22;57425;51.616;6.680;2023-07-30T07:29:43;19.70;70.90
70068;DHT22;57425;51.616;6.680;2023-07-30T07:32:09;19.70;70.90
70068;DHT22;57425;51.616;6.680;2023-07-30T07:34:35;19.70;70.90
70068;DHT22;57425;51.616;6.680;2023-07-30T07:37:01;19.70;71.00
70068;DHT22;57425;51.616;6.680;2023-07-30T07:39:27;19.70;71.00
70068;DHT22;57425;51.616;6.680;2023-07-30T07:41:52;19.70;71.10
70068;DHT22;57425;51.616;6.680;2023-07-30T07:44:18;19.70;71.10
70068;DHT22;57425;51.616;6.680;2023-07-30T07:46:44;19.70;71.10
70068;DHT22;57425;51.616;6.680;2023-07-30T07:49:09;19.80;71.10
70068;DHT22;57425;51.616;6.680;2023-07-30T07:51:35;19.70;71.20
70068;DHT22;57425;51.616;6.680;2023-07-30T07:54:00;19.70;71.20
70068;DHT22;57425;51.616;6.680;2023-07-30T07:56:26;19.70;71.20
70068;DHT22;57425;51.616;6.680;2023-07-30T07:58:51;19.70;71.20
70068;DHT22;57425;51.616;6.680;2023-07-30T08:01:17;19.70;71.20
70068;DHT22;57425;51.616;6.680;2023-07-30T08:03:43;19.80;71.30
70068;DHT22;57425;51.616;6.680;2023-07-30T08:06:09;19.70;71.30
70068;DHT22;57425;51.616;6.680;2023-07-30T08:08:34;19.80;71.30
70068;DHT22;57425;51.616;6.680;2023-07-30T08:11:07;19.80;71.30
70068;DHT22;57425;51.616;6.680;2023-07-30T08:13:34;19.90;71.40
70068;DHT22;57425;51.616;6.680;2023-07-30T08:16:00;19.80;71.30
70068;DHT22;57425;51.616;6.680;2023-07-30T08:18:26;19.80;71.20
70068;DHT22;57425;51.616;6.680;2023-07-30T08:20:51;19.90;71.30
70068;DHT22;57425;51.616;6.680;2023-07-30T08:23:17;19.90;71.30
70068;DHT22;57425;51.616;6.680;2023-07-30T08:25:43;20.00;71.40
70068;DHT22;57425;51.616;6.680;2023-07-30T08:28:08;20.00;72.00
70068;DHT22;57425;51.616;6.680;2023-07-30T08:30:34;20.00;71.40
70068;DHT22;57425;51.616;6.680;2023-07-30T08:32:59;20.00;71.40
70068;DHT22;57425;51.616;6.680;2023-07-30T08:35:25;20.00;71.50
70068;DHT22;57425;51.616;6.680;2023-07-30T08:37:52;20.00;71.40
70068;DHT22;57425;51.616;6.680;2023-07-30T08:40:18;20.00;71.40
70068;DHT22;57425;51.616;6.680;2023-07-30T08:42:45;20.00;71.40
70068;DHT22;57425;51.616;6.680;2023-07-30T08:45:11;20.00;71.40
70068;DHT22;57425;51.616;6.680;2023-07-30T08:47:39;20.10;71.60
70068;DHT22;57425;51.616;6.680;2023-07-30T08:50:05;20.00;71.50
70068;DHT22;57425;51.616;6.680;2023-07-30T08:52:32;20.10;71.50
70068;DHT22;57425;51.616;6.680;2023-07-30T08:55:00;20.10;71.40
70068;DHT22;57425;51.616;6.680;2023-07-30T08:57:29;20.10;71.30
70068;DHT22;57425;51.616;6.680;2023-07-30T09:00:10;20.20;71.30
70068;DHT22;57425;51.616;6.680;2023-07-30T09:02:41;20.20;71.40
70068;DHT22;57425;51.616;6.680;2023-07-30T09:05:09;20.10;71.40
70068;DHT22;57425;51.616;6.680;2023-07-30T09:07:35;20.20;71.30
70068;DHT22;57425;51.616;6.680;2023-07-30T09:10:01;20.20;71.30
70068;DHT22;57425;51.616;6.680;2023-07-30T09:12:32;20.20;71.30
70068;DHT22;57425;51.616;6.680;2023-07-30T09:14:58;20.30;71.50
70068;DHT22;57425;51.616;6.680;2023-07-30T09:17:24;20.30;71.50
70068;DHT22;57425;51.616;6.680;2023-07-30T09:19:51;20.30;71.50
70068;DHT22;57425;51.616;6.680;2023-07-30T09:22:36;20.30;71.60
70068;DHT22;57425;51.616;6.680;2023-07-30T09:25:04;20.40;71.50
70068;DHT22;57425;51.616;6.680;2023-07-30T09:27:32;20.30;71.50
70068;DHT22;57425;51.616;6.680;2023-07-30T09:29:59;20.40;71.50
70068;DHT22;57425;51.616;6.680;2023-07-30T09:32:28;20.40;71.40
70068;DHT22;57425;51.616;6.680;2023-07-30T09:34:54;20.40;71.30
70068;DHT22;57425;51.616;6.680;2023-07-30T09:37:20;20.40;71.20
70068;DHT22;57425;51.616;6.680;2023-07-30T09:39:49;20.40;71.30
70068;DHT22;57425;51.616;6.680;2023-07-30T09:42:15;20.40;71.20
70068;DHT22;57425;51.616;6.680;2023-07-30T09:44:41;20.50;71.20
70068;DHT22;57425;51.616;6.680;2023-07-30T09:47:12;20.50;71.20
70068;DHT22;57425;51.616;6.680;2023-07-30T09:49:38;20.50;71.10
70068;DHT22;57425;51.616;6.680;2023-07-30T09:52:05;20.50;71.20
70068;DHT22;57425;51.616;6.680;2023-07-30T09:54:31;20.50;71.30
70068;DHT22;57425;51.616;6.680;2023-07-30T09:56:58;20.50;71.20
70068;DHT22;57425;51.616;6.680;2023-07-30T09:59:23;20.50;71.10
70068;DHT22;57425;51.616;6.680;2023-07-30T10:01:49;20.60;71.10
70068;DHT22;57425;51.616;6.680;2023-07-30T10:04:20;20.60;71.00
70068;DHT22;57425;51.616;6.680;2023-07-30T10:06:56;20.60;70.90
70068;DHT22;57425;51.616;6.680;2023-07-30T10:09:26;20.60;70.80
70068;DHT22;57425;51.616;6.680;2023-07-30T10:11:54;20.60;70.80
70068;DHT22;57425;51.616;6.680;2023-07-30T10:14:22;20.70;70.70
70068;DHT22;57425;51.616;6.680;2023-07-30T10:16:57;20.70;70.70
70068;DHT22;57425;51.616;6.680;2023-07-30T10:19:25;20.70;70.80
70068;DHT22;57425;51.616;6.680;2023-07-30T10:21:51;20.70;70.60
70068;DHT22;57425;51.616;6.680;2023-07-30T10:24:16;20.70;70.50
70068;DHT22;57425;51.616;6.680;2023-07-30T10:26:42;20.80;70.40
70068;DHT22;57425;51.616;6.680;2023-07-30T10:31:41;20.80;70.30
70068;DHT22;57425;51.616;6.680;2023-07-30T10:34:08;20.80;70.30
70068;DHT22;57425;51.616;6.680;2023-07-30T10:36:55;20.80;70.40
70068;DHT22;57425;51.616;6.680;2023-07-30T10:39:26;20.90;70.80
70068;DHT22;57425;51.616;6.680;2023-07-30T10:41:54;20.90;70.40
70068;DHT22;57425;51.616;6.680;2023-07-30T10:44:26;20.90;70.70
70068;DHT22;57425;51.616;6.680;2023-07-30T10:46:53;20.90;70.60
70068;DHT22;57425;51.616;6.680;2023-07-30T10:49:19;20.90;71.30
70068;DHT22;57425;51.616;6.680;2023-07-30T10:51:45;20.90;70.80
70068;DHT22;57425;51.616;6.680;2023-07-30T10:54:10;21.00;70.60
70068;DHT22;57425;51.616;6.680;2023-07-30T10:56:36;21.00;70.50
70068;DHT22;57425;51.616;6.680;2023-07-30T10:59:08;21.00;70.30
70068;DHT22;57425;51.616;6.680;2023-07-30T11:01:44;21.00;70.30
70068;DHT22;57425;51.616;6.680;2023-07-30T11:04:18;21.00;70.10
70068;DHT22;57425;51.616;6.680;2023-07-30T11:06:48;21.10;69.90
70068;DHT22;57425;51.616;6.680;2023-07-30T11:09:26;21.00;69.80
70068;DHT22;57425;51.616;6.680;2023-07-30T11:11:54;21.10;69.70
70068;DHT22;57425;51.616;6.680;2023-07-30T11:14:21;21.10;70.00
70068;DHT22;57425;51.616;6.680;2023-07-30T11:16:56;21.10;70.00
70068;DHT22;57425;51.616;6.680;2023-07-30T11:19:24;21.10;70.10
70068;DHT22;57425;51.616;6.680;2023-07-30T11:21:52;21.10;70.10
70068;DHT22;57425;51.616;6.680;2023-07-30T11:24:19;21.20;70.00
70068;DHT22;57425;51.616;6.680;2023-07-30T11:26:45;21.10;70.00
70068;DHT22;57425;51.616;6.680;2023-07-30T11:29:17;21.20;69.90
70068;DHT22;57425;51.616;6.680;2023-07-30T11:31:44;21.20;69.40
70068;DHT22;57425;51.616;6.680;2023-07-30T11:34:12;21.20;69.60
70068;DHT22;57425;51.616;6.680;2023-07-30T11:36:39;21.20;69.60
70068;DHT22;57425;51.616;6.680;2023-07-30T11:39:06;21.20;69.80
70068;DHT22;57425;51.616;6.680;2023-07-30T11:41:32;21.20;69.80
70068;DHT22;57425;51.616;6.680;2023-07-30T11:43:58;21.20;69.60
70068;DHT22;57425;51.616;6.680;2023-07-30T11:46:23;21.20;69.30
70068;DHT22;57425;51.616;6.680;2023-07-30T11:48:50;21.30;69.50
70068;DHT22;57425;51.616;6.680;2023-07-30T11:51:27;21.30;69.30
70068;DHT22;57425;51.616;6.680;2023-07-30T11:53:58;21.30;68.90
70068;DHT22;57425;51.616;6.680;2023-07-30T11:56:28;21.30;68.70
70068;DHT22;57425;51.616;6.680;2023-07-30T11:58:57;21.30;68.50
70068;DHT22;57425;51.616;6.680;2023-07-30T12:01:25;21.30;68.40
70068;DHT22;57425;51.616;6.680;2023-07-30T12:03:53;21.30;68.50
70068;DHT22;57425;51.616;6.680;2023-07-30T12:06:19;21.20;68.60
70068;DHT22;57425;51.616;6.680;2023-07-30T12:08:44;21.20;68.70
70068;DHT22;57425;51.616;6.680;2023-07-30T12:11:13;21.20;69.00
70068;DHT22;57425;51.616;6.680;2023-07-30T12:13:44;21.20;69.20
70068;DHT22;57425;51.616;6.680;2023-07-30T12:16:14;21.20;69.20
70068;DHT22;57425;51.616;6.680;2023-07-30T12:18:39;21.20;69.30
70068;DHT22;57425;51.616;6.680;2023-07-30T12:21:06;21.20;69.30
70068;DHT22;57425;51.616;6.680;2023-07-30T12:23:37;21.20;69.40
70068;DHT22;57425;51.616;6.680;2023-07-30T12:26:03;21.20;69.40
70068;DHT22;57425;51.616;6.680;2023-07-30T12:28:31;21.30;69.40
70068;DHT22;57425;51.616;6.680;2023-07-30T12:30:57;21.30;69.30
70068;DHT22;57425;51.616;6.680;2023-07-30T12:33:22;21.30;69.20
70068;DHT22;57425;51.616;6.680;2023-07-30T12:35:48;21.30;69.30
70068;DHT22;57425;51.616;6.680;2023-07-30T12:38:15;21.30;69.90
70068;DHT22;57425;51.616;6.680;2023-07-30T12:40:41;21.30;69.30
70068;DHT22;57425;51.616;6.680;2023-07-30T12:43:07;21.30;70.00
70068;DHT22;57425;51.616;6.680;2023-07-30T12:45:34;21.30;70.10
70068;DHT22;57425;51.616;6.680;2023-07-30T12:48:00;21.30;69.50
70068;DHT22;57425;51.616;6.680;2023-07-30T12:50:26;21.30;69.50
70068;DHT22;57425;51.616;6.680;2023-07-30T12:52:52;21.30;69.50
70068;DHT22;57425;51.616;6.680;2023-07-30T12:55:18;21.30;69.60
70068;DHT22;57425;51.616;6.680;2023-07-30T12:57:44;21.30;69.80
70068;DHT22;57425;51.616;6.680;2023-07-30T13:00:10;21.30;70.60
70068;DHT22;57425;51.616;6.680;2023-07-30T13:02:35;21.40;70.30
70068;DHT22;57425;51.616;6.680;2023-07-30T13:05:01;21.30;70.40
70068;DHT22;57425;51.616;6.680;2023-07-30T13:07:29;21.30;70.60
70068;DHT22;57425;51.616;6.680;2023-07-30T13:10:08;21.30;70.90
70068;DHT22;57425;51.616;6.680;2023-07-30T13:12:34;21.30;71.10
70068;DHT22;57425;51.616;6.680;2023-07-30T13:15:00;21.30;71.40
70068;DHT22;57425;51.616;6.680;2023-07-30T13:17:25;21.30;71.70
70068;DHT22;57425;51.616;6.680;2023-07-30T13:19:51;21.30;71.90
70068;DHT22;57425;51.616;6.680;2023-07-30T13:22:16;21.30;72.10
70068;DHT22;57425;51.616;6.680;2023-07-30T13:24:42;21.40;72.30
70068;DHT22;57425;51.616;6.680;2023-07-30T13:27:08;21.40;72.30
70068;DHT22;57425;51.616;6.680;2023-07-30T13:29:33;21.40;72.30
70068;DHT22;57425;51.616;6.680;2023-07-30T13:31:59;21.40;72.40
70068;DHT22;57425;51.616;6.680;2023-07-30T13:34:25;21.40;72.50
70068;DHT22;57425;51.616;6.680;2023-07-30T13:36:51;21.50;72.60
70068;DHT22;57425;51.616;6.680;2023-07-30T13:39:16;21.50;72.60
70068;DHT22;57425;51.616;6.680;2023-07-30T13:41:42;21.50;72.40
70068;DHT22;57425;51.616;6.680;2023-07-30T13:44:08;21.50;72.30
70068;DHT22;57425;51.616;6.680;2023-07-30T13:46:34;21.50;72.00
70068;DHT22;57425;51.616;6.680;2023-07-30T13:48:59;21.50;71.70
70068;DHT22;57425;51.616;6.680;2023-07-30T13:51:25;21.60;71.70
70068;DHT22;57425;51.616;6.680;2023-07-30T13:53:52;21.60;71.60
70068;DHT22;57425;51.616;6.680;2023-07-30T13:56:17;21.60;71.60
70068;DHT22;57425;51.616;6.680;2023-07-30T13:58:43;21.60;71.50
70068;DHT22;57425;51.616;6.680;2023-07-30T14:01:08;21.60;71.20
70068;DHT22;57425;51.616;6.680;2023-07-30T14:03:35;21.60;71.00
70068;DHT22;57425;51.616;6.680;2023-07-30T14:06:00;21.60;70.90
70068;DHT22;57425;51.616;6.680;2023-07-30T14:08:26;21.60;70.80
70068;DHT22;57425;51.616;6.680;2023-07-30T14:10:52;21.70;70.80
70068;DHT22;57425;51.616;6.680;2023-07-30T14:13:17;21.60;70.70
70068;DHT22;57425;51.616;6.680;2023-07-30T14:15:43;21.70;70.60
70068;DHT22;57425;51.616;6.680;2023-07-30T14:18:09;21.70;70.50
70068;DHT22;57425;51.616;6.680;2023-07-30T14:20:35;21.70;70.50
70068;DHT22;57425;51.616;6.680;2023-07-30T14:23:03;21.70;70.60
70068;DHT22;57425;51.616;6.680;2023-07-30T14:25:29;21.70;70.40
70068;DHT22;57425;51.616;6.680;2023-07-30T14:27:55;21.70;70.20
70068;DHT22;57425;51.616;6.680;2023-07-30T14:30:21;21.70;70.20
70068;DHT22;57425;51.616;6.680;2023-07-30T14:32:46;21.70;70.20
70068;DHT22;57425;51.616;6.680;2023-07-30T14:35:12;21.80;70.30
70068;DHT22;57425;51.616;6.680;2023-07-30T14:37:38;21.80;70.30
70068;DHT22;57425;51.616;6.680;2023-07-30T14:40:04;21.80;70.10
70068;DHT22;57425;51.616;6.680;2023-07-30T14:42:30;21.80;70.10
70068;DHT22;57425;51.616;6.680;2023-07-30T14:44:56;21.80;70.20
70068;DHT22;57425;51.616;6.680;2023-07-30T14:47:21;21.80;70.20
70068;DHT22;57425;51.616;6.680;2023-07-30T14:49:47;21.80;69.90
70068;DHT22;57425;51.616;6.680;2023-07-30T14:52:13;21.80;69.90
70068;DHT22;57425;51.616;6.680;2023-07-30T14:54:39;21.80;70.00
70068;DHT22;57425;51.616;6.680;2023-07-30T14:57:05;21.90;69.80
70068;DHT22;57425;51.616;6.680;2023-07-30T14:59:30;21.90;70.10
70068;DHT22;57425;51.616;6.680;2023-07-30T15:01:56;21.90;70.20
70068;DHT22;57425;51.616;6.680;2023-07-30T15:04:22;21.90;70.20
70068;DHT22;57425;51.616;6.680;2023-07-30T15:06:47;21.90;69.90
70068;DHT22;57425;51.616;6.680;2023-07-30T15:09:13;21.90;70.30
70068;DHT22;57425;51.616;6.680;2023-07-30T15:11:38;21.90;69.70
70068;DHT22;57425;51.616;6.680;2023-07-30T15:14:04;21.90;69.70
70068;DHT22;57425;51.616;6.680;2023-07-30T15:16:29;21.90;69.90
70068;DHT22;57425;51.616;6.680;2023-07-30T15:18:55;21.90;70.00
70068;DHT22;57425;51.616;6.680;2023-07-30T15:21:22;21.90;70.00
70068;DHT22;57425;51.616;6.680;2023-07-30T15:23:47;22.00;69.60
70068;DHT22;57425;51.616;6.680;2023-07-30T15:26:13;22.00;69.70
70068;DHT22;57425;51.616;6.680;2023-07-30T15:28:40;21.90;69.50
70068;DHT22;57425;51.616;6.680;2023-07-30T15:31:06;22.00;69.60
70068;DHT22;57425;51.616;6.680;2023-07-30T15:33:31;22.00;70.30
70068;DHT22;57425;51.616;6.680;2023-07-30T15:35:57;22.00;69.70